Time;durP1;ratioP1;P1;durP2;ratioP2;P2;SDS_P1;SDS_P2;PMS_P1;PMS_P2;Temp;Humidity;BMP_temperature;BMP_pressure;BME280_temperature;BME280_humidity;BME280_pressure;Samples;Min_cycle;Max_cycle;Signal;HPM_P1;HPM_P2
2023/06/28 00:00:02;;;;;;;10.47;8.23;;;23.90;93.50;;;;;;5044508;28;20235;-65
2023/06/28 00:02:35;;;;;;;14.00;8.87;;;24.00;93.50;;;;;;5046774;28;20290;-65
2023/06/28 00:05:08;;;;;;;14.90;8.23;;;24.00;93.50;;;;;;5033200;28;20203;-64
2023/06/28 00:07:36;;;;;;;18.33;8.97;;;24.00;93.40;;;;;;5042735;28;20279;-65
2023/06/28 00:10:04;;;;;;;17.30;9.30;;;24.00;93.40;;;;;;5046592;28;20199;-64
2023/06/28 00:12:32;;;;;;;17.57;8.93;;;24.00;93.40;;;;;;5051640;28;20215;-65
2023/06/28 00:15:00;;;;;;;15.20;8.67;;;24.00;93.50;;;;;;5051072;28;20183;-65
2023/06/28 00:17:30;;;;;;;18.30;9.60;;;23.90;93.40;;;;;;5051103;28;20194;-64
2023/06/28 00:20:08;;;;;;;24.40;9.30;;;23.90;93.40;;;;;;5032160;28;20280;-64
2023/06/28 00:22:35;;;;;;;28.43;9.97;;;23.90;93.40;;;;;;5048888;28;20202;-68
2023/06/28 00:25:04;;;;;;;14.97;8.83;;;23.80;93.40;;;;;;5045648;28;20277;-65
2023/06/28 00:27:35;;;;;;;14.67;9.00;;;23.80;93.50;;;;;;5041517;28;20206;-64
2023/06/28 00:30:02;;;;;;;21.40;10.50;;;23.80;93.50;;;;;;5046908;28;20198;-64
2023/06/28 00:32:30;;;;;;;21.67;8.70;;;23.80;93.50;;;;;;5056966;28;20211;-64
2023/06/28 00:34:57;;;;;;;14.93;9.87;;;23.80;93.60;;;;;;5045381;28;20199;-65
2023/06/28 00:37:25;;;;;;;23.90;9.63;;;23.80;93.60;;;;;;5047319;28;20270;-64
2023/06/28 00:39:51;;;;;;;20.57;10.13;;;23.70;93.90;;;;;;5044107;28;20203;-65
2023/06/28 00:42:21;;;;;;;30.97;10.40;;;23.70;93.80;;;;;;5034343;28;20507;-65
2023/06/28 00:44:48;;;;;;;25.77;8.23;;;23.80;93.90;;;;;;5045929;28;20218;-65
2023/06/28 00:47:16;;;;;;;22.27;8.53;;;23.80;93.90;;;;;;5045944;28;20201;-65
2023/06/28 00:49:46;;;;;;;23.03;9.07;;;23.80;94.00;;;;;;5036244;28;20279;-65
2023/06/28 00:52:16;;;;;;;24.93;9.20;;;23.80;94.00;;;;;;5048263;28;20210;-65
2023/06/28 00:54:44;;;;;;;15.67;9.77;;;23.80;94.00;;;;;;5041312;28;20207;-65
2023/06/28 00:57:11;;;;;;;26.47;9.90;;;23.80;93.90;;;;;;5046336;28;20249;-65
2023/06/28 00:59:38;;;;;;;17.10;8.50;;;23.80;93.90;;;;;;5047642;28;20202;-64
2023/06/28 01:02:05;;;;;;;12.60;8.73;;;23.80;93.90;;;;;;5043653;28;20208;-64
2023/06/28 01:04:36;;;;;;;19.17;9.33;;;23.80;93.90;;;;;;5047193;28;20222;-64
2023/06/28 01:07:03;;;;;;;12.67;8.70;;;23.80;94.00;;;;;;5030925;28;20226;-65
2023/06/28 01:09:32;;;;;;;14.07;9.13;;;23.70;94.00;;;;;;5041950;28;20205;-65
2023/06/28 01:12:00;;;;;;;16.30;8.67;;;23.80;94.00;;;;;;5035411;28;20289;-65
2023/06/28 01:14:28;;;;;;;16.17;9.63;;;23.70;93.70;;;;;;5048109;28;20282;-65
2023/06/28 01:16:57;;;;;;;13.03;7.83;;;23.80;93.80;;;;;;5034511;28;20292;-64
2023/06/28 01:19:27;;;;;;;11.90;7.63;;;23.70;93.60;;;;;;5042947;28;20199;-64
2023/06/28 01:22:00;;;;;;;12.30;7.87;;;23.70;93.60;;;;;;5042575;28;20195;-64
2023/06/28 01:24:27;;;;;;;11.70;7.80;;;23.70;93.70;;;;;;5044526;28;20595;-64
2023/06/28 01:26:58;;;;;;;15.67;7.63;;;23.60;93.70;;;;;;5041501;28;20199;-64
2023/06/28 01:29:26;;;;;;;12.63;7.30;;;23.60;93.70;;;;;;5039368;28;20199;-65
2023/06/28 01:31:55;;;;;;;11.70;6.27;;;23.50;93.70;;;;;;5046366;28;20278;-65
2023/06/28 01:34:26;;;;;;;13.60;6.23;;;23.50;93.70;;;;;;5045054;28;20552;-64
2023/06/28 01:36:56;;;;;;;8.47;5.30;;;23.40;93.70;;;;;;5044218;28;20569;-67
2023/06/28 01:39:27;;;;;;;9.57;5.80;;;23.40;93.70;;;;;;5041702;28;20201;-65
2023/06/28 01:41:55;;;;;;;7.10;5.07;;;23.40;93.70;;;;;;5055368;28;20626;-65
2023/06/28 01:44:22;;;;;;;10.30;4.30;;;23.40;93.60;;;;;;5041853;28;20215;-65
2023/06/28 01:46:51;;;;;;;12.37;5.30;;;23.30;93.50;;;;;;5043860;28;20252;-64
2023/06/28 01:49:18;;;;;;;9.10;4.63;;;23.30;93.50;;;;;;5046141;28;20191;-64
2023/06/28 01:51:46;;;;;;;6.50;4.17;;;23.30;93.90;;;;;;5058446;28;20202;-65
2023/06/28 01:54:14;;;;;;;5.90;4.13;;;23.20;93.70;;;;;;5043705;28;20203;-65
2023/06/28 01:56:42;;;;;;;11.73;4.77;;;23.20;93.90;;;;;;5041398;28;20249;-64
2023/06/28 01:59:09;;;;;;;7.83;4.57;;;23.20;93.90;;;;;;5025113;28;20207;-64
2023/06/28 02:01:37;;;;;;;9.57;4.27;;;23.10;93.80;;;;;;5030772;28;20233;-64
2023/06/28 02:04:04;;;;;;;5.57;4.47;;;23.10;93.80;;;;;;5031069;28;20226;-64
2023/06/28 02:06:32;;;;;;;7.03;4.20;;;23.10;93.80;;;;;;5025611;28;20203;-64
2023/06/28 02:08:59;;;;;;;6.97;4.00;;;23.10;93.70;;;;;;5042048;28;20225;-65
2023/06/28 02:11:27;;;;;;;5.30;3.73;;;23.00;93.60;;;;;;5028596;28;20203;-65
2023/06/28 02:13:54;;;;;;;10.80;4.37;;;22.90;93.60;;;;;;5047314;28;20199;-64
2023/06/28 02:16:22;;;;;;;9.17;4.33;;;22.90;93.60;;;;;;5038554;28;20286;-64
2023/06/28 02:18:51;;;;;;;9.87;5.10;;;22.80;93.80;;;;;;5038560;28;20203;-64
2023/06/28 02:21:18;;;;;;;6.57;4.33;;;22.80;93.80;;;;;;5030767;28;20211;-64
2023/06/28 02:23:47;;;;;;;9.47;5.27;;;22.70;93.90;;;;;;5043845;28;20308;-64
2023/06/28 02:26:15;;;;;;;6.77;4.53;;;22.70;94.00;;;;;;5046682;28;20554;-65
2023/06/28 02:28:45;;;;;;;12.47;5.30;;;22.60;94.10;;;;;;5032066;28;20197;-65
2023/06/28 02:31:16;;;;;;;5.80;4.17;;;22.60;94.50;;;;;;5032929;28;20207;-64
2023/06/28 02:33:45;;;;;;;9.60;4.30;;;22.60;94.20;;;;;;5044223;28;20523;-64
2023/06/28 02:36:13;;;;;;;10.83;4.73;;;22.60;94.20;;;;;;5040351;28;20217;-64
2023/06/28 02:38:42;;;;;;;5.77;4.00;;;22.60;94.30;;;;;;5039123;28;20237;-64
2023/06/28 02:41:10;;;;;;;8.63;4.33;;;22.60;94.30;;;;;;5039850;28;20202;-64
2023/06/28 02:43:37;;;;;;;7.20;3.83;;;22.60;94.30;;;;;;5039565;28;20230;-64
2023/06/28 02:46:04;;;;;;;8.13;4.27;;;22.60;94.30;;;;;;5031403;28;20276;-65
2023/06/28 02:48:34;;;;;;;10.40;4.93;;;22.60;94.40;;;;;;5045646;28;20206;-64
2023/06/28 02:51:02;;;;;;;6.83;4.17;;;22.60;94.40;;;;;;5024460;28;20199;-64
2023/06/28 02:53:30;;;;;;;8.70;4.23;;;22.70;94.50;;;;;;5027253;28;20226;-64
2023/06/28 02:55:57;;;;;;;6.97;4.07;;;22.70;94.40;;;;;;5027743;28;20211;-65
2023/06/28 02:58:43;;;;;;;8.20;4.40;;;22.70;94.40;;;;;;5039936;28;20352;-64
2023/06/28 03:01:11;;;;;;;5.97;4.13;;;22.70;94.30;;;;;;5054894;28;20272;-64
2023/06/28 03:03:38;;;;;;;6.50;4.07;;;22.70;94.20;;;;;;5033882;28;20210;-65
2023/06/28 03:06:05;;;;;;;12.80;4.80;;;22.70;94.20;;;;;;5038579;28;20206;-64
2023/06/28 03:08:33;;;;;;;10.80;4.73;;;22.80;94.30;;;;;;5048588;28;20256;-64
2023/06/28 03:11:01;;;;;;;7.93;5.03;;;22.70;94.20;;;;;;5044897;28;20209;-65
2023/06/28 03:13:28;;;;;;;9.10;4.13;;;22.70;94.20;;;;;;5023041;28;20198;-64
2023/06/28 03:15:57;;;;;;;6.60;4.33;;;22.70;94.40;;;;;;5027392;28;20630;-66
2023/06/28 03:18:24;;;;;;;6.73;4.80;;;22.70;94.40;;;;;;5026354;28;20213;-64
2023/06/28 03:20:51;;;;;;;9.37;4.97;;;22.70;94.60;;;;;;5039419;28;20202;-65
2023/06/28 03:23:19;;;;;;;9.10;4.30;;;22.70;94.50;;;;;;5037054;28;20213;-64
2023/06/28 03:25:46;;;;;;;7.77;4.87;;;22.70;94.40;;;;;;5041913;28;20237;-66
2023/06/28 03:28:16;;;;;;;7.90;4.90;;;22.70;94.40;;;;;;5040083;28;20203;-65
2023/06/28 03:30:43;;;;;;;8.43;4.63;;;22.70;94.40;;;;;;5030947;28;20211;-64
2023/06/28 03:33:10;;;;;;;6.63;4.50;;;22.60;94.50;;;;;;5039924;28;20240;-64
2023/06/28 03:35:37;;;;;;;9.77;5.13;;;22.70;94.60;;;;;;5044232;28;21209;-64
2023/06/28 03:38:04;;;;;;;11.90;5.07;;;22.60;94.40;;;;;;5028928;28;20237;-64
2023/06/28 03:40:36;;;;;;;9.30;4.93;;;22.60;94.50;;;;;;5030815;28;20286;-65
2023/06/28 03:43:04;;;;;;;7.33;5.60;;;22.60;94.50;;;;;;5026374;28;20712;-64
2023/06/28 03:45:33;;;;;;;10.50;5.07;;;22.60;94.30;;;;;;5027635;28;20211;-64
2023/06/28 03:48:01;;;;;;;9.73;5.93;;;22.60;94.30;;;;;;5040454;28;20237;-65
2023/06/28 03:50:29;;;;;;;7.87;4.40;;;22.60;94.30;;;;;;5014688;28;20218;-64
2023/06/28 03:52:56;;;;;;;8.60;4.37;;;22.50;94.30;;;;;;5053378;28;20210;-64
2023/06/28 03:55:23;;;;;;;5.90;4.43;;;22.50;94.20;;;;;;5024895;28;20211;-64
2023/06/28 03:57:51;;;;;;;7.23;4.97;;;22.50;94.20;;;;;;5042247;28;20195;-64
2023/06/28 04:00:19;;;;;;;7.57;4.27;;;22.50;94.20;;;;;;5032014;28;20210;-65
2023/06/28 04:02:46;;;;;;;9.23;4.23;;;22.50;94.10;;;;;;5026984;28;20207;-64
2023/06/28 04:05:14;;;;;;;8.20;4.23;;;22.50;94.10;;;;;;5041343;28;20219;-64
2023/06/28 04:07:41;;;;;;;7.13;4.47;;;22.40;93.90;;;;;;5043544;28;20215;-64
2023/06/28 04:10:08;;;;;;;5.20;3.90;;;22.40;93.70;;;;;;5046787;28;20236;-64
2023/06/28 04:12:35;;;;;;;6.67;4.17;;;22.30;93.70;;;;;;5048454;28;20208;-65
2023/06/28 04:15:06;;;;;;;5.23;3.60;;;22.40;93.70;;;;;;5045775;28;20214;-64
2023/06/28 04:17:33;;;;;;;6.80;4.17;;;22.30;93.80;;;;;;5040873;28;20207;-65
2023/06/28 04:20:01;;;;;;;10.00;4.33;;;22.30;93.90;;;;;;5043353;28;20209;-64
2023/06/28 04:22:28;;;;;;;9.30;4.30;;;22.30;93.90;;;;;;5048428;28;20218;-64
2023/06/28 04:24:55;;;;;;;4.50;3.93;;;22.30;94.00;;;;;;5045863;28;20238;-64
2023/06/28 04:27:22;;;;;;;8.87;3.83;;;22.40;94.00;;;;;;5046256;28;20291;-64
2023/06/28 04:29:49;;;;;;;7.50;4.00;;;22.40;94.00;;;;;;5047066;28;20203;-65
2023/06/28 04:32:26;;;;;;;5.90;4.30;;;22.40;94.00;;;;;;5043863;28;20207;-65
2023/06/28 04:34:54;;;;;;;7.07;4.37;;;22.50;94.00;;;;;;5046076;28;20349;-64
2023/06/28 04:37:21;;;;;;;8.40;4.63;;;22.50;93.90;;;;;;5046251;28;20202;-65
2023/06/28 04:39:49;;;;;;;9.03;4.60;;;22.50;93.80;;;;;;5042063;28;20215;-65
2023/06/28 04:42:16;;;;;;;4.97;4.00;;;22.50;93.90;;;;;;5044048;28;20209;-64
2023/06/28 04:44:46;;;;;;;6.33;4.40;;;22.60;93.90;;;;;;5047433;28;20226;-65
2023/06/28 04:47:17;;;;;;;7.43;4.47;;;22.70;93.80;;;;;;5042576;28;20654;-64
2023/06/28 04:49:46;;;;;;;11.80;4.97;;;22.70;93.80;;;;;;5040940;28;20225;-64
2023/06/28 04:52:14;;;;;;;8.70;4.27;;;22.80;93.70;;;;;;5041090;28;20191;-65
2023/06/28 04:54:41;;;;;;;6.83;3.83;;;22.80;93.60;;;;;;5039952;28;20215;-64
2023/06/28 04:57:08;;;;;;;5.00;4.50;;;22.90;93.50;;;;;;5038817;28;20210;-64
2023/06/28 04:59:36;;;;;;;8.50;4.13;;;22.90;93.40;;;;;;5046287;28;20229;-64
2023/06/28 05:02:05;;;;;;;5.67;4.40;;;22.90;93.30;;;;;;5042465;28;20230;-64
2023/06/28 05:04:37;;;;;;;7.90;4.13;;;23.00;93.40;;;;;;5057924;28;20545;-65
2023/06/28 05:07:06;;;;;;;9.00;4.20;;;23.00;93.40;;;;;;5041723;28;20219;-65
2023/06/28 05:09:35;;;;;;;5.57;3.80;;;23.00;93.40;;;;;;5041771;28;20679;-64
2023/06/28 05:12:03;;;;;;;6.37;4.43;;;23.10;93.40;;;;;;5046239;28;20286;-64
2023/06/28 05:14:31;;;;;;;8.93;4.47;;;23.10;93.70;;;;;;5047354;28;20199;-64
2023/06/28 05:16:58;;;;;;;5.83;5.30;;;23.10;93.50;;;;;;5043936;28;20242;-64
2023/06/28 05:19:25;;;;;;;11.37;4.70;;;23.10;93.60;;;;;;5044361;28;20290;-64
2023/06/28 05:21:54;;;;;;;8.57;4.47;;;23.10;93.50;;;;;;5041958;28;20203;-64
2023/06/28 05:24:21;;;;;;;12.43;4.50;;;23.20;93.50;;;;;;5042600;28;20630;-65
2023/06/28 05:26:48;;;;;;;8.03;4.50;;;23.20;93.40;;;;;;5040128;28;20214;-64
2023/06/28 05:29:19;;;;;;;10.37;4.30;;;23.20;93.40;;;;;;5045473;28;20214;-64
2023/06/28 05:31:46;;;;;;;7.40;5.50;;;23.30;93.50;;;;;;5042357;28;20211;-64
2023/06/28 05:34:13;;;;;;;8.50;4.83;;;23.30;93.40;;;;;;5044205;28;20630;-64
2023/06/28 05:36:41;;;;;;;5.60;4.00;;;23.30;93.30;;;;;;5044237;28;20217;-64
2023/06/28 05:39:09;;;;;;;10.00;4.43;;;23.30;93.20;;;;;;5043630;28;20242;-64
2023/06/28 05:41:39;;;;;;;7.77;4.23;;;23.40;93.20;;;;;;5025290;28;20199;-65
2023/06/28 05:44:06;;;;;;;5.93;4.30;;;23.40;93.10;;;;;;5041740;28;20195;-64
2023/06/28 05:46:33;;;;;;;12.13;4.57;;;23.40;93.10;;;;;;5043946;28;20210;-64
2023/06/28 05:49:05;;;;;;;5.63;3.60;;;23.40;92.90;;;;;;5047336;28;20242;-64
2023/06/28 05:51:32;;;;;;;7.23;4.63;;;23.40;92.90;;;;;;5050024;28;20225;-64
2023/06/28 05:53:59;;;;;;;4.30;3.77;;;23.40;92.80;;;;;;5046111;28;20222;-64
2023/06/28 05:56:27;;;;;;;4.97;3.67;;;23.30;92.70;;;;;;5046707;28;20233;-64
2023/06/28 05:58:56;;;;;;;8.20;4.27;;;23.30;92.80;;;;;;5046973;28;20314;-64
2023/06/28 06:01:24;;;;;;;7.70;4.93;;;23.30;92.90;;;;;;5041520;28;20198;-64
2023/06/28 06:03:51;;;;;;;7.47;4.20;;;23.30;92.60;;;;;;5026180;28;20538;-65
2023/06/28 06:06:19;;;;;;;7.03;3.70;;;23.30;92.60;;;;;;5040825;28;20234;-64
2023/06/28 06:08:46;;;;;;;4.43;3.47;;;23.30;92.40;;;;;;5044093;28;20215;-64
2023/06/28 06:11:13;;;;;;;6.23;3.23;;;23.30;92.40;;;;;;5043796;28;20198;-64
2023/06/28 06:13:40;;;;;;;4.20;3.77;;;23.30;92.20;;;;;;5045905;28;20214;-67
2023/06/28 06:16:07;;;;;;;6.57;3.80;;;23.30;92.00;;;;;;5049088;28;20230;-64
2023/06/28 06:18:36;;;;;;;4.73;3.60;;;23.30;91.60;;;;;;5041046;28;20203;-64
2023/06/28 06:21:03;;;;;;;6.67;3.87;;;23.30;91.50;;;;;;5043398;28;20586;-63
2023/06/28 06:23:30;;;;;;;7.30;3.60;;;23.30;91.30;;;;;;5044854;28;20621;-64
2023/06/28 06:25:58;;;;;;;4.13;3.40;;;23.30;91.10;;;;;;5046393;28;20238;-64
2023/06/28 06:28:25;;;;;;;7.60;4.17;;;23.30;91.00;;;;;;5046228;28;20210;-64
2023/06/28 06:30:55;;;;;;;7.03;3.83;;;23.30;91.00;;;;;;5047387;28;20593;-64
2023/06/28 06:33:22;;;;;;;6.60;4.27;;;23.30;90.90;;;;;;5048199;28;20268;-64
2023/06/28 06:35:49;;;;;;;5.50;4.13;;;23.30;91.00;;;;;;5044074;28;20579;-64
2023/06/28 06:38:16;;;;;;;5.57;4.33;;;23.30;90.60;;;;;;5041358;28;20657;-64
2023/06/28 06:40:45;;;;;;;9.20;3.40;;;23.30;90.70;;;;;;5039180;28;20447;-65
2023/06/28 06:43:12;;;;;;;4.97;3.40;;;23.30;90.70;;;;;;5038697;28;20214;-64
2023/06/28 06:45:39;;;;;;;3.83;3.50;;;23.40;91.00;;;;;;5040470;28;20284;-63
2023/06/28 06:48:11;;;;;;;5.73;3.87;;;23.40;90.70;;;;;;5027996;28;20210;-64
2023/06/28 06:50:38;;;;;;;7.70;4.03;;;23.40;90.70;;;;;;5045376;28;20203;-64
2023/06/28 06:53:07;;;;;;;4.57;4.17;;;23.40;90.80;;;;;;5041171;28;20221;-63
2023/06/28 06:55:34;;;;;;;5.30;4.50;;;23.40;90.90;;;;;;5043315;28;20600;-63
2023/06/28 06:58:01;;;;;;;5.83;3.93;;;23.50;90.80;;;;;;5041271;28;20602;-64
2023/06/28 07:00:28;;;;;;;4.80;4.00;;;23.60;90.60;;;;;;5046017;28;20199;-63
2023/06/28 07:02:55;;;;;;;5.13;3.80;;;23.60;90.20;;;;;;5024233;28;20700;-64
2023/06/28 07:05:22;;;;;;;4.43;3.60;;;23.60;90.00;;;;;;5035822;28;20239;-65
2023/06/28 07:07:50;;;;;;;4.37;3.97;;;23.60;90.10;;;;;;5039390;28;20611;-65
2023/06/28 07:10:17;;;;;;;7.87;4.03;;;23.60;90.20;;;;;;5043518;28;20533;-64
2023/06/28 07:12:44;;;;;;;6.27;4.10;;;23.60;90.10;;;;;;5041504;28;20205;-65
2023/06/28 07:15:11;;;;;;;4.67;3.40;;;23.60;90.00;;;;;;5042952;28;20207;-65
2023/06/28 07:17:38;;;;;;;8.50;4.70;;;23.60;89.80;;;;;;5036370;28;20207;-64
2023/06/28 07:20:06;;;;;;;5.53;3.87;;;23.70;89.90;;;;;;5041006;28;20281;-64
2023/06/28 07:22:33;;;;;;;4.50;4.10;;;23.70;89.30;;;;;;5040008;28;20195;-65
2023/06/28 07:25:04;;;;;;;5.40;4.27;;;23.80;88.50;;;;;;5042043;28;20235;-64
2023/06/28 07:27:31;;;;;;;6.60;4.33;;;23.70;88.80;;;;;;5039871;28;20201;-67
2023/06/28 07:29:58;;;;;;;10.67;4.23;;;23.80;88.80;;;;;;5047735;28;20253;-66
2023/06/28 07:32:26;;;;;;;7.00;4.33;;;23.80;89.20;;;;;;5040216;28;20638;-65
2023/06/28 07:34:56;;;;;;;9.27;4.37;;;23.90;89.30;;;;;;5040321;28;20564;-64
2023/06/28 07:37:23;;;;;;;6.47;4.40;;;24.00;89.20;;;;;;5042331;28;20206;-63
2023/06/28 07:39:51;;;;;;;7.63;4.47;;;24.10;89.20;;;;;;5040371;28;20256;-66
2023/06/28 07:42:21;;;;;;;6.13;4.20;;;24.20;88.90;;;;;;5040810;28;20622;-65
2023/06/28 07:44:48;;;;;;;10.60;5.60;;;24.30;88.70;;;;;;5044122;28;20216;-65
2023/06/28 07:47:16;;;;;;;4.97;4.53;;;24.50;88.50;;;;;;5045962;28;20195;-63
2023/06/28 07:49:43;;;;;;;7.40;4.63;;;24.60;87.80;;;;;;5045318;28;20213;-65
2023/06/28 07:52:11;;;;;;;6.97;4.70;;;24.60;86.90;;;;;;5037669;28;20207;-64
2023/06/28 07:54:38;;;;;;;8.13;5.10;;;24.70;87.40;;;;;;5042745;28;20226;-63
2023/06/28 07:57:05;;;;;;;5.50;4.70;;;24.80;87.00;;;;;;5044721;28;20207;-64
2023/06/28 07:59:32;;;;;;;5.47;4.70;;;24.90;87.50;;;;;;5063800;28;20216;-65
2023/06/28 08:01:59;;;;;;;7.17;5.00;;;25.00;86.80;;;;;;5047417;28;20288;-65
2023/06/28 08:04:26;;;;;;;6.50;4.40;;;25.00;85.90;;;;;;5052121;28;20194;-64
2023/06/28 08:06:53;;;;;;;6.60;4.60;;;25.10;86.30;;;;;;5042629;28;20207;-66
2023/06/28 08:09:20;;;;;;;8.40;5.43;;;25.20;86.90;;;;;;5047405;28;20689;-65
2023/06/28 08:11:48;;;;;;;7.87;4.90;;;25.20;87.10;;;;;;5046752;28;20243;-63
2023/06/28 08:14:15;;;;;;;6.23;5.10;;;25.30;87.00;;;;;;5049745;28;20556;-65
2023/06/28 08:16:42;;;;;;;10.63;5.00;;;25.40;86.50;;;;;;5037208;28;20210;-65
2023/06/28 08:19:10;;;;;;;8.90;5.83;;;25.50;85.10;;;;;;5046413;28;20207;-66
2023/06/28 08:21:37;;;;;;;7.10;5.47;;;25.40;84.90;;;;;;5041436;28;20222;-67
2023/06/28 08:24:05;;;;;;;7.70;5.63;;;25.40;84.90;;;;;;5044622;28;20216;-66
2023/06/28 08:26:35;;;;;;;8.07;6.17;;;25.40;85.70;;;;;;5043064;28;20211;-65
2023/06/28 08:29:03;;;;;;;7.50;5.77;;;25.40;86.60;;;;;;5046428;28;20231;-64
2023/06/28 08:31:30;;;;;;;8.27;5.47;;;25.60;86.20;;;;;;5056412;28;20198;-65
2023/06/28 08:33:58;;;;;;;9.17;6.30;;;25.60;86.40;;;;;;5041597;28;20265;-65
2023/06/28 08:36:25;;;;;;;11.10;6.23;;;25.70;85.60;;;;;;5064055;28;20272;-64
2023/06/28 08:38:52;;;;;;;7.33;5.67;;;25.70;85.30;;;;;;5047822;28;20210;-65
2023/06/28 08:41:20;;;;;;;7.93;5.70;;;25.60;85.40;;;;;;5042934;28;20220;-66
2023/06/28 08:43:51;;;;;;;7.00;6.07;;;25.70;85.50;;;;;;5045852;28;20207;-65
2023/06/28 08:46:18;;;;;;;9.30;5.73;;;25.60;85.80;;;;;;5049714;28;20225;-62
2023/06/28 08:48:47;;;;;;;8.83;6.03;;;25.60;86.00;;;;;;5044835;28;20654;-64
2023/06/28 08:51:15;;;;;;;8.47;6.07;;;25.60;86.30;;;;;;5040997;28;20209;-63
2023/06/28 08:53:45;;;;;;;11.43;6.07;;;25.50;86.80;;;;;;5042062;28;20200;-65
2023/06/28 08:56:15;;;;;;;12.37;6.63;;;25.50;87.00;;;;;;5041214;28;20208;-64
2023/06/28 08:58:48;;;;;;;7.03;5.83;;;25.50;87.30;;;;;;5047567;28;20203;-66
2023/06/28 09:01:15;;;;;;;9.53;6.27;;;25.60;87.40;;;;;;5046319;28;20212;-65
2023/06/28 09:03:43;;;;;;;9.53;6.07;;;25.70;87.10;;;;;;5043481;28;20207;-65
2023/06/28 09:06:11;;;;;;;11.13;6.73;;;25.70;87.20;;;;;;5038783;28;20571;-65
2023/06/28 09:08:39;;;;;;;8.97;5.70;;;25.90;87.60;;;;;;5041505;28;20286;-67
2023/06/28 09:11:06;;;;;;;11.20;5.90;;;26.00;87.80;;;;;;5044545;28;20248;-63
2023/06/28 09:13:33;;;;;;;11.00;6.80;;;26.20;87.70;;;;;;5050161;28;20204;-64
2023/06/28 09:16:01;;;;;;;10.60;6.57;;;26.60;87.00;;;;;;5042884;28;20206;-64
2023/06/28 09:18:28;;;;;;;10.43;6.47;;;26.90;86.20;;;;;;5043323;28;20202;-64
2023/06/28 09:20:56;;;;;;;8.70;6.63;;;27.10;84.80;;;;;;5045652;28;20618;-65
2023/06/28 09:23:28;;;;;;;14.60;6.57;;;27.20;84.60;;;;;;5043846;28;20191;-63
2023/06/28 09:25:56;;;;;;;11.80;7.60;;;27.50;84.30;;;;;;5040975;28;20249;-61
2023/06/28 09:28:33;;;;;;;8.40;6.00;;;27.70;84.10;;;;;;5040643;28;20639;-63
2023/06/28 09:31:04;;;;;;;14.93;7.50;;;28.00;83.30;;;;;;5039397;28;20202;-65
2023/06/28 09:33:32;;;;;;;7.63;6.63;;;28.10;80.40;;;;;;5042956;28;20744;-64
2023/06/28 09:36:02;;;;;;;12.03;7.50;;;28.00;80.30;;;;;;5044293;28;20222;-64
2023/06/28 09:38:33;;;;;;;9.70;6.87;;;28.00;80.90;;;;;;5044960;28;20272;-63
2023/06/28 09:41:02;;;;;;;10.87;6.80;;;27.90;81.50;;;;;;5040800;28;20572;-63
2023/06/28 09:43:37;;;;;;;11.70;6.83;;;27.80;81.80;;;;;;5043094;28;20205;-63
2023/06/28 09:46:18;;;;;;;8.97;7.10;;;27.90;81.10;;;;;;5044660;28;20221;-64
2023/06/28 09:48:48;;;;;;;8.77;7.17;;;28.00;81.00;;;;;;5046630;28;20521;-65
2023/06/28 09:51:17;;;;;;;9.07;7.17;;;28.10;81.70;;;;;;5043919;28;20200;-65
2023/06/28 09:53:50;;;;;;;8.70;7.37;;;28.10;82.80;;;;;;5041855;28;20290;-65
2023/06/28 09:56:17;;;;;;;11.40;7.57;;;28.20;82.40;;;;;;5042620;28;20206;-63
2023/06/28 09:58:47;;;;;;;10.67;7.90;;;28.30;82.30;;;;;;5046132;28;20198;-64
2023/06/28 10:01:15;;;;;;;8.17;7.30;;;28.40;81.70;;;;;;5041066;28;20254;-65
2023/06/28 10:03:44;;;;;;;10.87;7.47;;;28.50;81.10;;;;;;5043034;28;20241;-64
2023/06/28 10:06:13;;;;;;;10.40;7.53;;;28.70;81.30;;;;;;5041132;28;20341;-66
2023/06/28 10:08:41;;;;;;;9.53;7.03;;;28.80;81.00;;;;;;5035497;28;20195;-63
2023/06/28 10:11:15;;;;;;;11.23;8.20;;;28.90;80.70;;;;;;5044355;28;20588;-65
2023/06/28 10:13:45;;;;;;;8.97;7.73;;;29.10;79.70;;;;;;5049014;28;20206;-64
2023/06/28 10:16:21;;;;;;;9.93;7.87;;;29.20;78.30;;;;;;5041757;28;20246;-66
2023/06/28 10:18:49;;;;;;;11.60;8.77;;;29.20;77.50;;;;;;5040767;28;20203;-66
2023/06/28 10:21:17;;;;;;;9.83;7.73;;;29.10;77.00;;;;;;5043479;28;20198;-65
2023/06/28 10:23:44;;;;;;;9.70;7.60;;;28.90;76.90;;;;;;5043576;28;20206;-64
2023/06/28 10:26:13;;;;;;;10.57;8.43;;;28.80;77.20;;;;;;5040328;28;20234;-64
2023/06/28 10:28:41;;;;;;;9.20;8.30;;;28.70;78.10;;;;;;5040909;28;20214;-62
2023/06/28 10:31:12;;;;;;;9.83;8.83;;;28.60;78.70;;;;;;5043818;28;20537;-62
2023/06/28 10:33:39;;;;;;;12.30;8.63;;;28.60;78.00;;;;;;5045508;28;20203;-62
2023/06/28 10:36:07;;;;;;;11.37;8.80;;;28.50;77.60;;;;;;5044672;28;20241;-65
2023/06/28 10:38:37;;;;;;;11.40;7.70;;;28.40;78.10;;;;;;5041908;28;20329;-65
2023/06/28 10:41:06;;;;;;;11.60;8.33;;;28.30;78.90;;;;;;5037980;28;20209;-65
2023/06/28 10:43:33;;;;;;;12.57;8.40;;;28.20;79.10;;;;;;5041689;28;20204;-65
2023/06/28 10:46:00;;;;;;;9.87;7.57;;;28.10;79.50;;;;;;5040721;28;20211;-65
2023/06/28 10:48:28;;;;;;;7.87;7.07;;;28.00;79.90;;;;;;5043853;28;20285;-64
2023/06/28 10:51:01;;;;;;;9.17;7.80;;;28.00;80.30;;;;;;5033112;28;20196;-64
2023/06/28 10:53:29;;;;;;;12.03;7.00;;;28.00;79.90;;;;;;5045235;28;20543;-65
2023/06/28 10:56:10;;;;;;;12.47;7.87;;;28.00;79.50;;;;;;5040463;28;20198;-64
2023/06/28 10:58:38;;;;;;;10.73;7.50;;;27.90;79.00;;;;;;5040666;28;20203;-64
2023/06/28 11:01:12;;;;;;;12.67;7.73;;;28.00;78.90;;;;;;5041450;28;20244;-64
2023/06/28 11:03:44;;;;;;;10.60;6.30;;;27.90;79.40;;;;;;5040035;28;20603;-64
2023/06/28 11:06:12;;;;;;;9.40;7.00;;;27.90;78.50;;;;;;5034657;28;20225;-65
2023/06/28 11:08:44;;;;;;;9.23;6.90;;;27.80;77.90;;;;;;5041536;28;20654;-65
2023/06/28 11:11:35;;;;;;;9.83;7.10;;;27.80;78.20;;;;;;5042733;28;20267;-64
2023/06/28 11:14:22;;;;;;;8.10;6.50;;;27.70;77.30;;;;;;5039355;28;20557;-65
2023/06/28 11:16:50;;;;;;;8.93;5.63;;;27.60;78.40;;;;;;5038814;28;20194;-64
2023/06/28 11:19:20;;;;;;;8.67;6.60;;;27.50;78.60;;;;;;5040630;28;20202;-65
2023/06/28 11:21:57;;;;;;;6.77;5.70;;;27.50;78.80;;;;;;5040777;28;20217;-64
2023/06/28 11:24:45;;;;;;;10.63;6.70;;;27.50;78.90;;;;;;5040950;28;20642;-64
2023/06/28 11:27:14;;;;;;;8.87;7.77;;;27.50;80.10;;;;;;5041204;28;20218;-65
2023/06/28 11:29:58;;;;;;;12.63;7.87;;;27.50;80.90;;;;;;5049161;28;20293;-65
2023/06/28 11:32:27;;;;;;;9.77;6.80;;;27.50;81.40;;;;;;5045788;28;20260;-65
2023/06/28 11:34:57;;;;;;;8.60;7.70;;;27.50;81.50;;;;;;5039505;28;20289;-64
2023/06/28 11:37:25;;;;;;;7.20;6.50;;;27.60;81.70;;;;;;5039566;28;20205;-65
2023/06/28 11:39:52;;;;;;;8.37;6.83;;;27.60;81.60;;;;;;5036841;28;20205;-64
2023/06/28 11:42:20;;;;;;;8.53;7.63;;;27.60;81.80;;;;;;5039621;28;20199;-65
2023/06/28 11:44:49;;;;;;;8.90;6.53;;;27.70;82.30;;;;;;5040130;28;20206;-64
2023/06/28 11:47:22;;;;;;;7.73;6.80;;;27.90;82.90;;;;;;5039893;28;20215;-65
2023/06/28 11:49:55;;;;;;;6.47;5.80;;;28.20;83.20;;;;;;5042921;28;20237;-63
2023/06/28 11:52:25;;;;;;;9.93;7.03;;;28.70;81.70;;;;;;5039816;28;20206;-65
2023/06/28 11:54:52;;;;;;;7.17;6.47;;;29.00;81.10;;;;;;5037417;28;20530;-64
2023/06/28 11:57:22;;;;;;;9.03;7.20;;;29.20;80.30;;;;;;5041350;28;20202;-63
2023/06/28 11:59:52;;;;;;;10.67;7.43;;;29.30;79.60;;;;;;5040441;28;20207;-65
2023/06/28 12:02:19;;;;;;;6.63;6.13;;;29.50;78.60;;;;;;5040960;28;20203;-66
2023/06/28 12:04:57;;;;;;;8.53;6.33;;;29.50;78.10;;;;;;5040628;28;20211;-64
2023/06/28 12:07:28;;;;;;;6.70;6.00;;;29.40;78.20;;;;;;5034333;28;20683;-63
2023/06/28 12:09:56;;;;;;;8.37;6.33;;;29.30;77.60;;;;;;5042140;28;20203;-64
2023/06/28 12:12:33;;;;;;;8.13;6.00;;;29.10;78.00;;;;;;5041505;28;20214;-64
2023/06/28 12:15:01;;;;;;;8.07;6.30;;;28.90;78.50;;;;;;5039465;28;20199;-65
2023/06/28 12:17:45;;;;;;;6.90;6.30;;;28.70;78.80;;;;;;5027781;28;20203;-67
2023/06/28 12:20:14;;;;;;;6.77;5.90;;;28.60;79.70;;;;;;5042320;28;20239;-64
2023/06/28 12:22:49;;;;;;;6.53;5.20;;;28.50;80.40;;;;;;5040486;28;20203;-63
2023/06/28 12:25:26;;;;;;;6.97;5.40;;;28.30;80.30;;;;;;5046178;28;20297;-64
2023/06/28 12:28:03;;;;;;;5.77;5.13;;;28.30;79.60;;;;;;5046195;28;20224;-63
2023/06/28 12:30:30;;;;;;;8.07;4.90;;;28.20;79.70;;;;;;5047109;28;20202;-64
2023/06/28 12:32:57;;;;;;;6.73;5.00;;;28.10;80.20;;;;;;5046176;28;20332;-63
2023/06/28 12:35:25;;;;;;;5.30;4.80;;;28.10;80.70;;;;;;5031736;28;20190;-63
2023/06/28 12:37:55;;;;;;;7.30;5.00;;;28.00;80.00;;;;;;5047570;28;20533;-63
2023/06/28 12:40:28;;;;;;;5.20;4.40;;;28.00;79.80;;;;;;5043241;28;20226;-63
2023/06/28 12:43:11;;;;;;;5.57;5.07;;;28.00;79.50;;;;;;5038643;28;20643;-64
2023/06/28 12:45:45;;;;;;;7.93;4.87;;;28.10;79.60;;;;;;5047001;28;20230;-65
2023/06/28 12:48:16;;;;;;;6.20;4.53;;;28.30;79.20;;;;;;5044409;28;20278;-67
2023/06/28 12:50:48;;;;;;;6.90;5.03;;;28.40;78.90;;;;;;5043233;28;20280;-65